• Join FlightAware (Why Join?)
  • Login
  • US Flag 
12:28PM EDT


 

Airport Tracker/Info


-or-


 

Live Flight TrackerFlight Track Log ✈ N1926A ✈ 30-Dec-2013 ✈ 41A - KMGM

Flight Track Log - Related Links

Times and Time Zones

All times are in EST time to prevent confusion due to time zone crossing. See the N1926A flight status page for this flight to view local times or setup timezone preferences in your user account.

Time Position Orientation Groundspeed Altitude Reporting Facility
EST Latitude Longitude Course Direction KTS MPH feet Rate Location/Type
03:32PM 32.4183 -86.1107 257° West  Level Estimated
03:33PM 32.4015 -86.1494 243° Southwest  Level FlightAware Approximate
03:34PM 32.3855 -86.1885 257° West  Level Estimated
03:35PM 32.3694 -86.2275 257° West  Level Estimated
03:36PM 32.3533 -86.2666 257° West  Level Estimated
03:37PM 32.3372 -86.3056 257° West  Level Estimated
03:38PM 32.3211 -86.3446 257° West  Level Estimated
03:39PM 32.3000 -86.3833 257° West  Level FlightAware Approximate
03:40PM 32.3006 -86.3940 257° West  Level Estimated
03:41PM 32.3006 -86.3940 257° West  Level Estimated
03:42PM 32.3006 -86.3940 257° West  Level Estimated
03:43PM 32.3006 -86.3940 257° West  Level Estimated
03:44PM 32.3006 -86.3940 257° West  Level Estimated
03:45PM 32.3006 -86.3940 257° West  Level Estimated
03:46PM 32.3006 -86.3940 257° West  Level Estimated
03:47PM 32.3006 -86.3940 257° West  Level Estimated
03:48PM 32.3006 -86.3940 257° West  Level Estimated
03:49PM 32.3006 -86.3940 257° West  Level Estimated
03:50PM 32.3006 -86.3940 257° West  Level Estimated
03:51PM 32.3006 -86.3940 257° West  Level Estimated
03:52PM 32.3006 -86.3940 257° West  Level Estimated
03:53PM 32.3006 -86.3940 257° West  Level Estimated
03:54PM 32.3006 -86.3940 257° West  Level Estimated
03:55PM 32.3006 -86.3940 257° West  Level Estimated